Terminal Aerodrome Forecast
Issued by NWS

Home | Current Version | Previous Version | Text Only | Print | Product List | Glossary On
Versions: 1 2 3 4 5 6 7 8 9 10 11 12 13 14 15 16 17 18
000
FTUS41 KPBZ 261121
TAFFKL
TAF
KFKL 261121Z 2612/2712 19007KT P6SM BKN060
      TEMPO 2612/2614 5SM -SHRA BKN040
     FM262000 20010KT P6SM VCTS BKN040CB
     FM270200 18005KT P6SM BKN100
     FM271000 20007KT 6SM -SHRA OVC025
      AMD LTD TO CLD VIS AND WIND=

USA.gov is the U.S. government's official web portal to all federal, state and local government web resources and services.